sensor_id;sensor_type;location;lat;lon;timestamp;pressure;altitude;pressure_sealevel;temperature;humidity
54512;BME280;40419;47.438;19.026;2023-08-24T00:02:14;99906.69;;;22.98;100.00
54512;BME280;40419;47.438;19.026;2023-08-24T00:04:39;99906.75;;;22.93;100.00
54512;BME280;40419;47.438;19.026;2023-08-24T00:07:04;99900.59;;;23.01;100.00
54512;BME280;40419;47.438;19.026;2023-08-24T00:09:33;99893.13;;;23.02;100.00
54512;BME280;40419;47.438;19.026;2023-08-24T00:12:01;99895.66;;;22.98;100.00
54512;BME280;40419;47.438;19.026;2023-08-24T00:14:29;99892.06;;;22.98;100.00
54512;BME280;40419;47.438;19.026;2023-08-24T00:16:54;99893.41;;;23.06;100.00
54512;BME280;40419;47.438;19.026;2023-08-24T00:19:23;99893.72;;;22.99;100.00
54512;BME280;40419;47.438;19.026;2023-08-24T00:21:48;99900.66;;;22.96;100.00
54512;BME280;40419;47.438;19.026;2023-08-24T00:24:14;99892.94;;;22.93;100.00
54512;BME280;40419;47.438;19.026;2023-08-24T00:26:42;99895.19;;;22.86;100.00
54512;BME280;40419;47.438;19.026;2023-08-24T00:29:11;99895.69;;;22.93;100.00
54512;BME280;40419;47.438;19.026;2023-08-24T00:31:37;99901.75;;;22.95;100.00
54512;BME280;40419;47.438;19.026;2023-08-24T00:34:05;99897.94;;;22.86;100.00
54512;BME280;40419;47.438;19.026;2023-08-24T00:36:33;99900.97;;;22.85;100.00
54512;BME280;40419;47.438;19.026;2023-08-24T00:39:01;99899.06;;;22.80;100.00
54512;BME280;40419;47.438;19.026;2023-08-24T00:41:26;99902.38;;;22.82;100.00
54512;BME280;40419;47.438;19.026;2023-08-24T00:43:54;99896.59;;;22.78;100.00
54512;BME280;40419;47.438;19.026;2023-08-24T00:46:23;99893.00;;;22.78;100.00
54512;BME280;40419;47.438;19.026;2023-08-24T00:48:53;99898.78;;;22.76;100.00
54512;BME280;40419;47.438;19.026;2023-08-24T00:51:23;99896.84;;;22.82;100.00
54512;BME280;40419;47.438;19.026;2023-08-24T00:53:54;99900.69;;;22.81;100.00
54512;BME280;40419;47.438;19.026;2023-08-24T00:56:20;99905.13;;;22.82;100.00
54512;BME280;40419;47.438;19.026;2023-08-24T00:58:50;99908.78;;;22.72;100.00
54512;BME280;40419;47.438;19.026;2023-08-24T01:01:18;99910.69;;;22.77;100.00
54512;BME280;40419;47.438;19.026;2023-08-24T01:03:48;99907.06;;;22.81;100.00
54512;BME280;40419;47.438;19.026;2023-08-24T01:06:14;99910.72;;;22.67;100.00
54512;BME280;40419;47.438;19.026;2023-08-24T01:08:39;99899.06;;;22.75;100.00
54512;BME280;40419;47.438;19.026;2023-08-24T01:16:48;99898.63;;;22.57;100.00
54512;BME280;40419;47.438;19.026;2023-08-24T01:19:37;99899.69;;;22.61;100.00
54512;BME280;40419;47.438;19.026;2023-08-24T01:22:13;99899.44;;;22.58;100.00
54512;BME280;40419;47.438;19.026;2023-08-24T01:24:47;99896.47;;;22.44;100.00
54512;BME280;40419;47.438;19.026;2023-08-24T01:27:17;99891.22;;;22.42;100.00
54512;BME280;40419;47.438;19.026;2023-08-24T01:29:46;99896.75;;;22.42;100.00
54512;BME280;40419;47.438;19.026;2023-08-24T01:32:14;99902.53;;;22.36;100.00
54512;BME280;40419;47.438;19.026;2023-08-24T01:34:40;99906.38;;;22.40;100.00
54512;BME280;40419;47.438;19.026;2023-08-24T01:37:10;99901.78;;;22.04;100.00
54512;BME280;40419;47.438;19.026;2023-08-24T01:43:07;99900.34;;;22.38;100.00
54512;BME280;40419;47.438;19.026;2023-08-24T01:45:33;99894.25;;;22.30;100.00
54512;BME280;40419;47.438;19.026;2023-08-24T01:48:02;99894.81;;;22.27;100.00
54512;BME280;40419;47.438;19.026;2023-08-24T01:50:31;99888.47;;;22.37;100.00
54512;BME280;40419;47.438;19.026;2023-08-24T01:52:59;99888.75;;;22.30;100.00
54512;BME280;40419;47.438;19.026;2023-08-24T01:55:27;99890.94;;;22.39;100.00
54512;BME280;40419;47.438;19.026;2023-08-24T01:57:55;99894.81;;;22.38;100.00
54512;BME280;40419;47.438;19.026;2023-08-24T02:00:31;99890.66;;;22.45;100.00
54512;BME280;40419;47.438;19.026;2023-08-24T02:02:57;99895.06;;;22.41;100.00
54512;BME280;40419;47.438;19.026;2023-08-24T02:05:28;99897.59;;;22.38;100.00
54512;BME280;40419;47.438;19.026;2023-08-24T02:07:54;99890.13;;;22.28;100.00
54512;BME280;40419;47.438;19.026;2023-08-24T02:10:25;99894.25;;;22.30;100.00
54512;BME280;40419;47.438;19.026;2023-08-24T02:12:53;99884.38;;;22.14;100.00
54512;BME280;40419;47.438;19.026;2023-08-24T02:15:22;99892.34;;;22.26;100.00
54512;BME280;40419;47.438;19.026;2023-08-24T02:17:50;99887.63;;;22.26;100.00
54512;BME280;40419;47.438;19.026;2023-08-24T02:20:21;99893.75;;;22.08;100.00
54512;BME280;40419;47.438;19.026;2023-08-24T02:22:49;99887.66;;;22.16;100.00
54512;BME280;40419;47.438;19.026;2023-08-24T02:25:17;99884.09;;;22.16;100.00
54512;BME280;40419;47.438;19.026;2023-08-24T02:27:52;99884.91;;;22.21;100.00
54512;BME280;40419;47.438;19.026;2023-08-24T02:30:21;99884.06;;;22.21;100.00
54512;BME280;40419;47.438;19.026;2023-08-24T02:32:49;99886.00;;;22.20;100.00
54512;BME280;40419;47.438;19.026;2023-08-24T02:35:17;99885.44;;;22.23;100.00
54512;BME280;40419;47.438;19.026;2023-08-24T02:37:46;99889.03;;;22.19;100.00
54512;BME280;40419;47.438;19.026;2023-08-24T02:40:11;99883.78;;;22.27;100.00
54512;BME280;40419;47.438;19.026;2023-08-24T02:42:37;99884.06;;;22.21;100.00
54512;BME280;40419;47.438;19.026;2023-08-24T02:45:03;99875.22;;;22.29;100.00
54512;BME280;40419;47.438;19.026;2023-08-24T02:47:31;99892.06;;;22.33;100.00
54512;BME280;40419;47.438;19.026;2023-08-24T02:50:06;99882.16;;;22.21;100.00
54512;BME280;40419;47.438;19.026;2023-08-24T02:52:34;99895.38;;;22.24;100.00
54512;BME280;40419;47.438;19.026;2023-08-24T02:55:00;99890.44;;;22.21;100.00
54512;BME280;40419;47.438;19.026;2023-08-24T02:57:31;99892.59;;;22.29;100.00
54512;BME280;40419;47.438;19.026;2023-08-24T02:59:56;99891.78;;;22.34;100.00
54512;BME280;40419;47.438;19.026;2023-08-24T03:02:22;99888.50;;;22.27;100.00
54512;BME280;40419;47.438;19.026;2023-08-24T03:04:48;99874.97;;;22.25;100.00
54512;BME280;40419;47.438;19.026;2023-08-24T03:07:15;99882.16;;;22.16;100.00
54512;BME280;40419;47.438;19.026;2023-08-24T03:09:46;99881.88;;;22.23;100.00
54512;BME280;40419;47.438;19.026;2023-08-24T03:12:13;99876.34;;;22.18;100.00
54512;BME280;40419;47.438;19.026;2023-08-24T03:14:39;99879.41;;;22.11;100.00
54512;BME280;40419;47.438;19.026;2023-08-24T03:17:08;99877.19;;;22.13;100.00
54512;BME280;40419;47.438;19.026;2023-08-24T03:19:38;99876.13;;;22.04;100.00
54512;BME280;40419;47.438;19.026;2023-08-24T03:22:09;99874.75;;;22.06;100.00
54512;BME280;40419;47.438;19.026;2023-08-24T03:24:34;99882.16;;;22.16;100.00
54512;BME280;40419;47.438;19.026;2023-08-24T03:27:00;99876.91;;;22.15;100.00
54512;BME280;40419;47.438;19.026;2023-08-24T03:29:27;99870.59;;;22.09;100.00
54512;BME280;40419;47.438;19.026;2023-08-24T03:31:55;99872.53;;;21.98;100.00
54512;BME280;40419;47.438;19.026;2023-08-24T03:34:24;99872.56;;;21.93;100.00
54512;BME280;40419;47.438;19.026;2023-08-24T03:36:52;99870.94;;;21.71;100.00
54512;BME280;40419;47.438;19.026;2023-08-24T03:39:18;99876.97;;;21.73;100.00
54512;BME280;40419;47.438;19.026;2023-08-24T03:41:43;99878.38;;;21.76;100.00
54512;BME280;40419;47.438;19.026;2023-08-24T03:44:11;99890.50;;;21.59;100.00
54512;BME280;40419;47.438;19.026;2023-08-24T03:46:37;99890.50;;;21.59;100.00
54512;BME280;40419;47.438;19.026;2023-08-24T03:49:03;99886.66;;;21.61;100.00
54512;BME280;40419;47.438;19.026;2023-08-24T03:51:28;99892.69;;;21.52;100.00
54512;BME280;40419;47.438;19.026;2023-08-24T03:53:56;99887.97;;;21.37;100.00
54512;BME280;40419;47.438;19.026;2023-08-24T03:56:22;99886.06;;;21.43;100.00
54512;BME280;40419;47.438;19.026;2023-08-24T03:58:49;99892.44;;;21.59;100.00
54512;BME280;40419;47.438;19.026;2023-08-24T04:01:20;99886.63;;;21.76;100.00
54512;BME280;40419;47.438;19.026;2023-08-24T04:03:45;99881.38;;;21.90;100.00
54512;BME280;40419;47.438;19.026;2023-08-24T04:06:13;99886.31;;;21.98;100.00
54512;BME280;40419;47.438;19.026;2023-08-24T04:08:42;99892.38;;;22.10;100.00
54512;BME280;40419;47.438;19.026;2023-08-24T04:11:13;99889.59;;;22.16;100.00
54512;BME280;40419;47.438;19.026;2023-08-24T04:13:42;99887.16;;;22.09;100.00
54512;BME280;40419;47.438;19.026;2023-08-24T04:16:15;99887.94;;;22.30;100.00
54512;BME280;40419;47.438;19.026;2023-08-24T04:18:43;99894.28;;;22.20;100.00
54512;BME280;40419;47.438;19.026;2023-08-24T04:21:08;99887.66;;;22.37;100.00
54512;BME280;40419;47.438;19.026;2023-08-24T04:23:36;99891.75;;;22.44;100.00
54512;BME280;40419;47.438;19.026;2023-08-24T04:26:01;99884.59;;;22.38;100.00
54512;BME280;40419;47.438;19.026;2023-08-24T04:28:29;99890.06;;;22.54;100.00
54512;BME280;40419;47.438;19.026;2023-08-24T04:30:57;99889.00;;;22.44;100.00
54512;BME280;40419;47.438;19.026;2023-08-24T04:33:25;99899.25;;;22.13;100.00
54512;BME280;40419;47.438;19.026;2023-08-24T04:35:55;99902.59;;;21.84;100.00
54512;BME280;40419;47.438;19.026;2023-08-24T04:38:23;99901.22;;;21.92;100.00
54512;BME280;40419;47.438;19.026;2023-08-24T04:40:55;99899.31;;;21.67;100.00
54512;BME280;40419;47.438;19.026;2023-08-24T04:43:22;99892.41;;;21.80;100.00
54512;BME280;40419;47.438;19.026;2023-08-24T04:45:52;99899.00;;;21.99;100.00
54512;BME280;40419;47.438;19.026;2023-08-24T04:48:22;99902.03;;;21.98;100.00
54512;BME280;40419;47.438;19.026;2023-08-24T04:50:50;99902.28;;;22.17;100.00
54512;BME280;40419;47.438;19.026;2023-08-24T04:53:21;99909.72;;;22.37;100.00
54512;BME280;40419;47.438;19.026;2023-08-24T04:55:52;99913.28;;;22.37;100.00
54512;BME280;40419;47.438;19.026;2023-08-24T04:58:20;99912.97;;;22.49;100.00
54512;BME280;40419;47.438;19.026;2023-08-24T05:00:45;99915.72;;;22.54;100.00
54512;BME280;40419;47.438;19.026;2023-08-24T05:03:16;99911.00;;;22.65;100.00
54512;BME280;40419;47.438;19.026;2023-08-24T05:05:44;99917.06;;;22.72;100.00
54512;BME280;40419;47.438;19.026;2023-08-24T05:08:12;99916.13;;;22.87;100.00
54512;BME280;40419;47.438;19.026;2023-08-24T05:10:37;99924.16;;;22.83;100.00
54512;BME280;40419;47.438;19.026;2023-08-24T05:13:03;99923.56;;;22.97;100.00
54512;BME280;40419;47.438;19.026;2023-08-24T05:15:29;99925.50;;;22.96;100.00
54512;BME280;40419;47.438;19.026;2023-08-24T05:17:57;99929.59;;;22.99;100.00
54512;BME280;40419;47.438;19.026;2023-08-24T05:20:27;99926.25;;;23.12;100.00
54512;BME280;40419;47.438;19.026;2023-08-24T05:22:55;99924.28;;;23.18;100.00
54512;BME280;40419;47.438;19.026;2023-08-24T05:27:52;99930.00;;;23.32;100.00
54512;BME280;40419;47.438;19.026;2023-08-24T05:30:18;99931.97;;;23.26;100.00
54512;BME280;40419;47.438;19.026;2023-08-24T05:32:46;99937.00;;;23.14;100.00
54512;BME280;40419;47.438;19.026;2023-08-24T05:35:11;99940.81;;;23.28;100.00
54512;BME280;40419;47.438;19.026;2023-08-24T05:37:39;99944.06;;;23.35;100.00
54512;BME280;40419;47.438;19.026;2023-08-24T05:40:07;99945.94;;;23.45;100.00
54512;BME280;40419;47.438;19.026;2023-08-24T05:42:33;99945.31;;;23.53;100.00
54512;BME280;40419;47.438;19.026;2023-08-24T05:45:01;99952.72;;;23.63;100.00
54512;BME280;40419;47.438;19.026;2023-08-24T05:47:27;99956.00;;;23.65;100.00
54512;BME280;40419;47.438;19.026;2023-08-24T05:49:54;99949.63;;;23.70;100.00
54512;BME280;40419;47.438;19.026;2023-08-24T05:52:20;99947.66;;;23.76;100.00
54512;BME280;40419;47.438;19.026;2023-08-24T05:54:48;99943.28;;;23.69;100.00
54512;BME280;40419;47.438;19.026;2023-08-24T05:57:18;99948.63;;;23.56;100.00
54512;BME280;40419;47.438;19.026;2023-08-24T05:59:44;99951.84;;;23.68;100.00
54512;BME280;40419;47.438;19.026;2023-08-24T06:02:14;99950.47;;;23.65;100.00
54512;BME280;40419;47.438;19.026;2023-08-24T06:04:42;99948.97;;;23.83;100.00
54512;BME280;40419;47.438;19.026;2023-08-24T06:07:10;99950.38;;;23.86;100.00
54512;BME280;40419;47.438;19.026;2023-08-24T06:09:38;99948.56;;;24.00;100.00
54512;BME280;40419;47.438;19.026;2023-08-24T06:12:06;99956.16;;;24.19;100.00
54512;BME280;40419;47.438;19.026;2023-08-24T06:14:32;99940.09;;;24.21;100.00
54512;BME280;40419;47.438;19.026;2023-08-24T06:17:00;99953.81;;;24.31;100.00
54512;BME280;40419;47.438;19.026;2023-08-24T06:19:25;99946.63;;;24.59;100.00
54512;BME280;40419;47.438;19.026;2023-08-24T06:21:55;99942.06;;;24.45;100.00
54512;BME280;40419;47.438;19.026;2023-08-24T06:24:23;99950.44;;;24.64;100.00
54512;BME280;40419;47.438;19.026;2023-08-24T06:26:49;99957.84;;;24.68;100.00
54512;BME280;40419;47.438;19.026;2023-08-24T06:29:19;99952.63;;;24.67;100.00
54512;BME280;40419;47.438;19.026;2023-08-24T06:31:55;99957.22;;;24.76;100.00
54512;BME280;40419;47.438;19.026;2023-08-24T06:34:20;99955.94;;;24.88;100.00
54512;BME280;40419;47.438;19.026;2023-08-24T06:36:46;99960.00;;;24.95;100.00
54512;BME280;40419;47.438;19.026;2023-08-24T06:39:12;99947.69;;;25.07;100.00
54512;BME280;40419;47.438;19.026;2023-08-24T06:41:38;99961.06;;;25.00;100.00
54512;BME280;40419;47.438;19.026;2023-08-24T06:44:12;99950.06;;;25.13;100.00
54512;BME280;40419;47.438;19.026;2023-08-24T06:46:40;99954.66;;;25.23;100.00
54512;BME280;40419;47.438;19.026;2023-08-24T06:49:05;99945.91;;;25.16;100.00
54512;BME280;40419;47.438;19.026;2023-08-24T06:51:33;99950.06;;;25.13;100.00
54512;BME280;40419;47.438;19.026;2023-08-24T06:54:04;99948.06;;;25.19;100.00
54512;BME280;40419;47.438;19.026;2023-08-24T06:56:29;99949.88;;;25.29;100.00
54512;BME280;40419;47.438;19.026;2023-08-24T06:59:01;99950.28;;;25.41;100.00
54512;BME280;40419;47.438;19.026;2023-08-24T07:01:29;99942.72;;;25.47;100.00
54512;BME280;40419;47.438;19.026;2023-08-24T07:04:01;99944.97;;;25.45;100.00
54512;BME280;40419;47.438;19.026;2023-08-24T07:06:29;99948.88;;;25.44;100.00
54512;BME280;40419;47.438;19.026;2023-08-24T07:08:57;99951.00;;;25.66;100.00
54512;BME280;40419;47.438;19.026;2023-08-24T07:11:25;99954.38;;;25.63;100.00
54512;BME280;40419;47.438;19.026;2023-08-24T07:13:53;99949.22;;;25.56;100.00
54512;BME280;40419;47.438;19.026;2023-08-24T07:16:19;99951.47;;;25.54;100.00
54512;BME280;40419;47.438;19.026;2023-08-24T07:18:44;99946.88;;;25.63;100.00
54512;BME280;40419;47.438;19.026;2023-08-24T07:21:15;99951.44;;;25.73;100.00
54512;BME280;40419;47.438;19.026;2023-08-24T07:23:44;99950.44;;;25.83;100.00
54512;BME280;40419;47.438;19.026;2023-08-24T07:26:12;99957.19;;;25.96;100.00
54512;BME280;40419;47.438;19.026;2023-08-24T07:28:40;99957.28;;;25.91;100.00
54512;BME280;40419;47.438;19.026;2023-08-24T07:31:11;99953.34;;;25.92;100.00
54512;BME280;40419;47.438;19.026;2023-08-24T07:33:38;99948.78;;;26.01;100.00
54512;BME280;40419;47.438;19.026;2023-08-24T07:36:09;99959.31;;;25.85;100.00
54512;BME280;40419;47.438;19.026;2023-08-24T07:38:36;99959.66;;;25.97;100.00
54512;BME280;40419;47.438;19.026;2023-08-24T07:41:04;99957.78;;;26.12;100.00
54512;BME280;40419;47.438;19.026;2023-08-24T07:43:33;99959.22;;;26.23;100.00
54512;BME280;40419;47.438;19.026;2023-08-24T07:46:03;99958.00;;;26.29;100.00
54512;BME280;40419;47.438;19.026;2023-08-24T07:48:34;99954.94;;;26.45;100.00
54512;BME280;40419;47.438;19.026;2023-08-24T07:51:04;99958.31;;;26.42;100.00
54512;BME280;40419;47.438;19.026;2023-08-24T07:53:32;99954.31;;;26.48;100.00
54512;BME280;40419;47.438;19.026;2023-08-24T07:56:01;99955.56;;;26.56;100.00
54512;BME280;40419;47.438;19.026;2023-08-24T07:58:27;99952.78;;;26.56;100.00
54512;BME280;40419;47.438;19.026;2023-08-24T08:00:53;99951.84;;;26.32;100.00
54512;BME280;40419;47.438;19.026;2023-08-24T08:03:23;99955.34;;;26.52;100.00
54512;BME280;40419;47.438;19.026;2023-08-24T08:05:48;99957.63;;;26.64;100.00
54512;BME280;40419;47.438;19.026;2023-08-24T08:08:19;99967.22;;;26.72;99.63
54512;BME280;40419;47.438;19.026;2023-08-24T08:10:47;99949.41;;;26.59;100.00
54512;BME280;40419;47.438;19.026;2023-08-24T08:13:15;99953.00;;;26.59;100.00
54512;BME280;40419;47.438;19.026;2023-08-24T08:15:43;99952.91;;;26.78;99.96
54512;BME280;40419;47.438;19.026;2023-08-24T08:18:11;99964.53;;;26.94;100.00
54512;BME280;40419;47.438;19.026;2023-08-24T08:20:38;99958.03;;;26.99;100.00
54512;BME280;40419;47.438;19.026;2023-08-24T08:23:04;99967.28;;;27.08;100.00
54512;BME280;40419;47.438;19.026;2023-08-24T08:25:33;99967.50;;;26.98;100.00
54512;BME280;40419;47.438;19.026;2023-08-24T08:27:58;99965.88;;;26.97;97.79
54512;BME280;40419;47.438;19.026;2023-08-24T08:30:24;99959.16;;;27.12;97.67
54512;BME280;40419;47.438;19.026;2023-08-24T08:32:49;99961.84;;;27.03;97.65
54512;BME280;40419;47.438;19.026;2023-08-24T08:35:17;99969.97;;;26.99;96.87
54512;BME280;40419;47.438;19.026;2023-08-24T08:37:45;99968.75;;;26.92;93.98
54512;BME280;40419;47.438;19.026;2023-08-24T08:40:17;99968.97;;;26.95;95.99
54512;BME280;40419;47.438;19.026;2023-08-24T08:42:43;99967.06;;;27.18;94.02
54512;BME280;40419;47.438;19.026;2023-08-24T08:45:11;99961.50;;;27.32;97.40
54512;BME280;40419;47.438;19.026;2023-08-24T08:47:38;99966.53;;;27.30;93.77
54512;BME280;40419;47.438;19.026;2023-08-24T08:50:04;99958.41;;;27.34;94.86
54512;BME280;40419;47.438;19.026;2023-08-24T08:52:32;99967.28;;;27.36;91.92
54512;BME280;40419;47.438;19.026;2023-08-24T08:55:00;99963.13;;;27.47;93.23
54512;BME280;40419;47.438;19.026;2023-08-24T08:57:26;99963.34;;;27.37;88.10
54512;BME280;40419;47.438;19.026;2023-08-24T08:59:57;99960.66;;;27.46;91.21
54512;BME280;40419;47.438;19.026;2023-08-24T09:02:23;99951.91;;;27.38;88.46
54512;BME280;40419;47.438;19.026;2023-08-24T09:04:51;99961.19;;;27.34;84.52
54512;BME280;40419;47.438;19.026;2023-08-24T09:07:17;99955.63;;;27.34;86.24
54512;BME280;40419;47.438;19.026;2023-08-24T09:09:45;99947.41;;;27.29;82.12
54512;BME280;40419;47.438;19.026;2023-08-24T09:12:13;99947.00;;;27.21;83.30
54512;BME280;40419;47.438;19.026;2023-08-24T09:14:38;99947.88;;;27.31;83.91
54512;BME280;40419;47.438;19.026;2023-08-24T09:17:19;99951.84;;;27.66;86.88
54512;BME280;40419;47.438;19.026;2023-08-24T09:19:50;99951.50;;;27.31;80.38
54512;BME280;40419;47.438;19.026;2023-08-24T09:22:17;99947.53;;;27.60;79.63
54512;BME280;40419;47.438;19.026;2023-08-24T09:24:51;99947.41;;;27.65;77.06
54512;BME280;40419;47.438;19.026;2023-08-24T09:27:21;99941.53;;;27.67;78.53
54512;BME280;40419;47.438;19.026;2023-08-24T09:29:48;99946.03;;;27.76;77.56
54512;BME280;40419;47.438;19.026;2023-08-24T09:32:14;99951.59;;;27.76;72.50
54512;BME280;40419;47.438;19.026;2023-08-24T09:34:43;99934.19;;;27.71;74.55
54512;BME280;40419;47.438;19.026;2023-08-24T09:37:19;99940.47;;;27.76;75.17
54512;BME280;40419;47.438;19.026;2023-08-24T09:39:45;99928.63;;;27.71;74.09
54512;BME280;40419;47.438;19.026;2023-08-24T09:42:12;99935.38;;;27.79;72.70
54512;BME280;40419;47.438;19.026;2023-08-24T09:44:46;99932.22;;;27.94;70.19
54512;BME280;40419;47.438;19.026;2023-08-24T09:47:14;99923.50;;;28.09;72.53
54512;BME280;40419;47.438;19.026;2023-08-24T09:49:40;99923.69;;;28.13;76.28
54512;BME280;40419;47.438;19.026;2023-08-24T09:52:13;99922.31;;;28.33;77.47
54512;BME280;40419;47.438;19.026;2023-08-24T09:54:40;99930.88;;;28.14;73.62
54512;BME280;40419;47.438;19.026;2023-08-24T09:57:13;99916.41;;;28.35;76.91
54512;BME280;40419;47.438;19.026;2023-08-24T09:59:44;99936.00;;;28.21;65.82
54512;BME280;40419;47.438;19.026;2023-08-24T10:02:20;99935.00;;;28.17;64.06
54512;BME280;40419;47.438;19.026;2023-08-24T10:04:47;99929.91;;;28.10;67.23
54512;BME280;40419;47.438;19.026;2023-08-24T10:07:15;99932.91;;;28.22;65.39
54512;BME280;40419;47.438;19.026;2023-08-24T10:10:02;99939.91;;;28.51;64.45
54512;BME280;40419;47.438;19.026;2023-08-24T10:12:40;99937.06;;;28.74;56.83
54512;BME280;40419;47.438;19.026;2023-08-24T10:15:10;99932.44;;;28.60;55.82
54512;BME280;40419;47.438;19.026;2023-08-24T10:17:39;99926.94;;;28.46;60.06
54512;BME280;40419;47.438;19.026;2023-08-24T10:20:09;99941.53;;;28.92;56.02
54512;BME280;40419;47.438;19.026;2023-08-24T10:22:40;99932.03;;;28.93;54.17
54512;BME280;40419;47.438;19.026;2023-08-24T10:25:08;99921.81;;;28.71;53.99
54512;BME280;40419;47.438;19.026;2023-08-24T10:27:35;99921.53;;;28.90;52.24
54512;BME280;40419;47.438;19.026;2023-08-24T10:30:11;99912.31;;;28.72;53.65
54512;BME280;40419;47.438;19.026;2023-08-24T10:32:38;99912.47;;;28.76;54.30
54512;BME280;40419;47.438;19.026;2023-08-24T10:35:09;99916.81;;;28.99;54.16
54512;BME280;40419;47.438;19.026;2023-08-24T10:37:35;99903.03;;;28.94;56.04
54512;BME280;40419;47.438;19.026;2023-08-24T10:40:04;99901.72;;;29.18;53.09
54512;BME280;40419;47.438;19.026;2023-08-24T10:42:43;99911.59;;;29.15;50.01
54512;BME280;40419;47.438;19.026;2023-08-24T10:45:13;99900.75;;;29.14;48.56
54512;BME280;40419;47.438;19.026;2023-08-24T10:47:45;99894.06;;;29.24;50.69
54512;BME280;40419;47.438;19.026;2023-08-24T10:50:16;99895.72;;;29.25;49.56
54512;BME280;40419;47.438;19.026;2023-08-24T10:52:44;99911.44;;;29.21;48.38
54512;BME280;40419;47.438;19.026;2023-08-24T10:55:27;99906.69;;;29.21;51.41
54512;BME280;40419;47.438;19.026;2023-08-24T10:57:56;99897.00;;;29.27;50.05
54512;BME280;40419;47.438;19.026;2023-08-24T11:00:29;99909.09;;;29.05;51.54
54512;BME280;40419;47.438;19.026;2023-08-24T11:02:56;99901.41;;;29.20;50.05
54512;BME280;40419;47.438;19.026;2023-08-24T11:05:27;99903.72;;;29.17;51.48
54512;BME280;40419;47.438;19.026;2023-08-24T11:15:53;99892.41;;;29.14;50.46
54512;BME280;40419;47.438;19.026;2023-08-24T11:18:30;99897.34;;;29.26;49.21
54512;BME280;40419;47.438;19.026;2023-08-24T11:21:16;99889.09;;;29.12;48.99
54512;BME280;40419;47.438;19.026;2023-08-24T11:23:46;99882.59;;;29.25;49.50
54512;BME280;40419;47.438;19.026;2023-08-24T11:26:12;99888.16;;;29.34;51.00
54512;BME280;40419;47.438;19.026;2023-08-24T11:28:38;99889.63;;;29.14;52.43
54512;BME280;40419;47.438;19.026;2023-08-24T11:31:09;99889.28;;;29.24;51.17
54512;BME280;40419;47.438;19.026;2023-08-24T11:33:37;99877.66;;;29.31;53.52
54512;BME280;40419;47.438;19.026;2023-08-24T11:36:03;99875.19;;;29.21;51.60
54512;BME280;40419;47.438;19.026;2023-08-24T11:38:43;99874.88;;;29.31;50.78
54512;BME280;40419;47.438;19.026;2023-08-24T11:43:43;99869.09;;;29.01;52.54
54512;BME280;40419;47.438;19.026;2023-08-24T11:46:15;99872.84;;;28.88;55.11
54512;BME280;40419;47.438;19.026;2023-08-24T11:48:45;99871.06;;;29.01;50.78
54512;BME280;40419;47.438;19.026;2023-08-24T11:51:11;99869.78;;;29.24;48.99
54512;BME280;40419;47.438;19.026;2023-08-24T11:53:41;99874.97;;;28.82;50.83
54512;BME280;40419;47.438;19.026;2023-08-24T11:56:12;99875.81;;;28.91;50.45
54512;BME280;40419;47.438;19.026;2023-08-24T11:58:41;99875.81;;;29.00;53.29
54512;BME280;40419;47.438;19.026;2023-08-24T12:01:10;99866.44;;;28.70;55.24
54512;BME280;40419;47.438;19.026;2023-08-24T12:03:37;99862.22;;;29.07;51.24
54512;BME280;40419;47.438;19.026;2023-08-24T12:06:14;99861.88;;;29.09;53.92
54512;BME280;40419;47.438;19.026;2023-08-24T12:08:41;99864.53;;;29.23;49.44
54512;BME280;40419;47.438;19.026;2023-08-24T12:13:37;99860.41;;;29.11;50.29
54512;BME280;40419;47.438;19.026;2023-08-24T12:16:04;99856.63;;;28.98;52.78
54512;BME280;40419;47.438;19.026;2023-08-24T12:18:35;99854.84;;;29.03;51.07
54512;BME280;40419;47.438;19.026;2023-08-24T12:21:03;99860.06;;;28.78;51.95
54512;BME280;40419;47.438;19.026;2023-08-24T12:23:34;99854.13;;;28.62;52.11
54512;BME280;40419;47.438;19.026;2023-08-24T12:26:02;99845.44;;;28.63;54.84
54512;BME280;40419;47.438;19.026;2023-08-24T12:28:30;99850.22;;;28.89;49.80
54512;BME280;40419;47.438;19.026;2023-08-24T12:30:58;99838.09;;;28.94;50.26
54512;BME280;40419;47.438;19.026;2023-08-24T12:33:30;99851.56;;;29.01;49.57
54512;BME280;40419;47.438;19.026;2023-08-24T12:35:57;99843.22;;;29.01;51.75
54512;BME280;40419;47.438;19.026;2023-08-24T12:38:25;99848.13;;;29.04;51.79
54512;BME280;40419;47.438;19.026;2023-08-24T12:40:56;99838.44;;;29.19;51.52
54512;BME280;40419;47.438;19.026;2023-08-24T12:43:26;99831.06;;;29.05;52.78
54512;BME280;40419;47.438;19.026;2023-08-24T12:45:52;99829.59;;;29.16;48.94
54512;BME280;40419;47.438;19.026;2023-08-24T12:48:17;99824.66;;;29.05;47.95
54512;BME280;40419;47.438;19.026;2023-08-24T12:50:43;99816.16;;;29.10;49.19
54512;BME280;40419;47.438;19.026;2023-08-24T12:53:11;99814.03;;;29.15;51.74
54512;BME280;40419;47.438;19.026;2023-08-24T12:55:39;99831.09;;;29.23;49.08
54512;BME280;40419;47.438;19.026;2023-08-24T12:58:09;99824.84;;;29.08;48.92
54512;BME280;40419;47.438;19.026;2023-08-24T13:00:37;99820.75;;;29.06;49.05
54512;BME280;40419;47.438;19.026;2023-08-24T13:03:10;99809.25;;;28.98;49.68
54512;BME280;40419;47.438;19.026;2023-08-24T13:05:36;99809.75;;;29.09;49.27
54512;BME280;40419;47.438;19.026;2023-08-24T13:08:07;99800.25;;;29.19;50.01
54512;BME280;40419;47.438;19.026;2023-08-24T13:10:37;99806.81;;;29.14;50.12
54512;BME280;40419;47.438;19.026;2023-08-24T13:13:05;99789.59;;;28.95;50.31
54512;BME280;40419;47.438;19.026;2023-08-24T13:15:35;99795.66;;;28.97;50.09